5MI4 weather

Anderson Airport
Howard City, Michigan, United States

Public forecast

Using degrees Fahrenheit for public forecast. Weather courtesy of forecast.io.

METAR (pilot weather report)

Closest report is Roben Hood Airport, 17.8 nm (33.0 km) N. Retrieved 2019/09/17 09:40 UTC (0 seconds ago):

KRQB 170940Z AUTO 14004KT 3SM BR OVC002 16/16 A3019 RMK AO2 T01600156

TAF (pilot weather forecast)

Closest forecast is Gerald R. Ford International Airport, 33.0 nm (61.1 km) S. Retrieved 2019/09/17 06:42 UTC (3 hours ago):

TAF KGRR 170540Z 1706/1806 06005KT P6SM SCT100 FM170900 07005KT 2SM BR BKN004 FM171300 10005KT 5SM BR BKN045 FM171500 12006KT P6SM BKN015 FM171700 10006KT P6SM BKN250